createdAt,value
2023-04-12T00:00:13.782Z,60.67
2023-04-12T00:02:42.492Z,59.67
2023-04-12T00:05:11.743Z,60.40
2023-04-12T00:07:40.558Z,59.67
2023-04-12T00:10:10.371Z,59.70
2023-04-12T00:12:38.424Z,58.97
2023-04-12T00:15:08.336Z,57.63
2023-04-12T00:17:37.994Z,57.60
2023-04-12T00:20:12.114Z,56.63
2023-04-12T00:22:41.510Z,56.13
2023-04-12T00:25:10.384Z,56.43
2023-04-12T00:27:39.241Z,55.80
2023-04-12T00:30:09.464Z,56.20
2023-04-12T00:32:39.031Z,56.43
2023-04-12T00:35:08.156Z,57.17
2023-04-12T00:37:38.781Z,56.63
2023-04-12T00:40:10.014Z,56.13
2023-04-12T00:42:38.714Z,57.57
2023-04-12T00:45:08.357Z,56.47
2023-04-12T00:47:40.497Z,57.63
2023-04-12T00:50:10.022Z,58.00
2023-04-12T00:52:39.222Z,57.50
2023-04-12T00:55:09.439Z,58.20
2023-04-12T00:57:40.141Z,56.93
2023-04-12T01:00:11.992Z,56.90
2023-04-12T01:02:42.686Z,59.13
2023-04-12T01:05:14.916Z,61.13
2023-04-12T01:07:54.236Z,66.47
2023-04-12T01:10:33.300Z,74.80
2023-04-12T01:13:09.131Z,81.60
2023-04-12T01:15:42.561Z,83.63
2023-04-12T01:18:17.817Z,85.27
2023-04-12T01:20:54.942Z,82.93
2023-04-12T01:23:44.800Z,87.40
2023-04-12T01:26:34.493Z,89.90
2023-04-12T01:29:10.708Z,90.87
2023-04-12T01:31:42.043Z,92.00
2023-04-12T01:34:12.271Z,92.13
2023-04-12T01:36:42.240Z,92.90
2023-04-12T01:39:11.609Z,91.43
2023-04-12T01:41:45.386Z,88.43
2023-04-12T01:44:16.412Z,89.13
2023-04-12T01:46:46.857Z,87.77
2023-04-12T01:49:16.746Z,83.97
2023-04-12T01:51:52.252Z,80.93
2023-04-12T01:54:23.596Z,82.03
2023-04-12T01:56:59.001Z,85.20
2023-04-12T01:59:33.233Z,82.87
2023-04-12T02:02:01.294Z,86.67
2023-04-12T02:04:30.380Z,84.13
2023-04-12T02:06:58.874Z,87.67
2023-04-12T02:09:27.474Z,86.57
2023-04-12T02:11:56.509Z,86.90
2023-04-12T02:14:24.551Z,87.47
2023-04-12T02:16:54.968Z,85.30
2023-04-12T02:19:23.256Z,85.33
2023-04-12T02:21:52.265Z,84.90
2023-04-12T02:24:20.627Z,86.33
2023-04-12T02:26:49.807Z,83.60
2023-04-12T02:29:18.061Z,75.40
2023-04-12T02:31:48.573Z,71.87
2023-04-12T02:34:19.564Z,67.73
2023-04-12T02:36:53.171Z,65.93
2023-04-12T02:39:22.383Z,63.80
2023-04-12T02:41:52.707Z,63.43
2023-04-12T02:44:21.448Z,61.37
2023-04-12T02:47:05.878Z,60.23
2023-04-12T02:49:36.693Z,60.50
2023-04-12T02:52:06.171Z,57.23
2023-04-12T02:54:42.374Z,56.93
2023-04-12T02:57:16.794Z,56.43
2023-04-12T02:59:47.664Z,53.97
2023-04-12T03:02:28.289Z,53.33
2023-04-12T03:05:03.550Z,53.03
2023-04-12T03:07:42.132Z,50.90
2023-04-12T03:10:12.840Z,49.63
2023-04-12T03:12:53.077Z,50.47
2023-04-12T03:15:23.542Z,48.87
2023-04-12T03:17:53.757Z,47.40
2023-04-12T03:20:28.421Z,45.97
2023-04-12T03:23:08.861Z,44.23
2023-04-12T03:25:41.054Z,43.27
2023-04-12T03:28:32.375Z,43.90
2023-04-12T03:31:03.101Z,43.77
2023-04-12T03:33:51.659Z,43.17
2023-04-12T03:36:29.574Z,42.67
2023-04-12T03:39:06.029Z,43.63
2023-04-12T03:41:36.432Z,43.47
2023-04-12T03:44:06.604Z,43.33
2023-04-12T03:46:36.469Z,42.97
2023-04-12T03:49:09.163Z,43.83
2023-04-12T03:51:43.189Z,42.30
2023-04-12T03:54:13.025Z,43.60
2023-04-12T03:56:52.272Z,44.07
2023-04-12T03:59:26.224Z,43.63
2023-04-12T04:01:55.545Z,43.40
2023-04-12T04:04:25.311Z,44.37
2023-04-12T04:06:58.862Z,47.67
2023-04-12T04:09:29.447Z,49.60
2023-04-12T04:11:58.364Z,51.27
2023-04-12T04:14:27.841Z,53.30
2023-04-12T04:16:56.447Z,55.47
2023-04-12T04:19:24.579Z,55.60
2023-04-12T04:21:52.768Z,56.50
2023-04-12T04:24:22.527Z,56.93
2023-04-12T04:26:54.918Z,58.20
2023-04-12T04:29:27.175Z,61.43
2023-04-12T04:31:57.581Z,60.73
2023-04-12T04:34:26.591Z,62.33
2023-04-12T04:37:02.236Z,61.57
2023-04-12T04:39:31.902Z,62.40
2023-04-12T04:42:00.812Z,63.17
2023-04-12T04:44:37.352Z,62.33
2023-04-12T04:47:08.765Z,63.23
2023-04-12T04:49:37.322Z,63.87
2023-04-12T04:52:20.989Z,64.47
2023-04-12T04:54:52.001Z,62.33
2023-04-12T04:57:21.205Z,63.63
2023-04-12T04:59:49.544Z,63.33
2023-04-12T05:02:18.845Z,63.43
2023-04-12T05:04:46.840Z,62.63
2023-04-12T05:07:18.490Z,63.97
2023-04-12T05:09:48.428Z,63.70
2023-04-12T05:12:18.963Z,63.73
2023-04-12T05:14:51.976Z,63.70
2023-04-12T05:17:20.482Z,63.97
2023-04-12T05:19:48.620Z,63.33
2023-04-12T05:22:20.471Z,59.73
2023-04-12T05:24:48.719Z,60.27
2023-04-12T05:27:19.038Z,62.20
2023-04-12T05:29:49.017Z,60.47
2023-04-12T05:32:19.816Z,60.10
2023-04-12T05:34:48.134Z,59.93
2023-04-12T05:37:16.622Z,58.43
2023-04-12T05:39:44.686Z,59.57
2023-04-12T05:42:13.840Z,59.50
2023-04-12T05:44:46.515Z,60.47
2023-04-12T05:47:16.399Z,62.03
2023-04-12T05:49:44.537Z,62.70
2023-04-12T05:52:13.474Z,62.20
2023-04-12T05:54:41.854Z,60.93
2023-04-12T05:57:14.041Z,60.17
2023-04-12T05:59:42.301Z,60.03
2023-04-12T06:02:12.209Z,57.77
2023-04-12T06:04:50.059Z,56.50
2023-04-12T06:07:20.076Z,56.07
2023-04-12T06:09:49.855Z,56.63
2023-04-12T06:12:18.721Z,55.73
2023-04-12T06:14:47.785Z,53.93
2023-04-12T06:17:17.298Z,54.83
2023-04-12T06:19:45.618Z,52.67
2023-04-12T06:22:13.654Z,52.33
2023-04-12T06:24:42.738Z,52.30
2023-04-12T06:27:12.390Z,51.13
2023-04-12T06:29:40.495Z,50.47
2023-04-12T06:32:09.000Z,49.60
2023-04-12T06:34:38.470Z,49.60
2023-04-12T06:37:12.914Z,51.30
2023-04-12T06:39:41.022Z,49.93
2023-04-12T06:42:09.029Z,47.03
2023-04-12T06:44:40.908Z,48.00
2023-04-12T06:47:09.512Z,45.33
2023-04-12T06:49:39.440Z,44.23
2023-04-12T06:52:07.392Z,44.83
2023-04-12T06:54:37.722Z,45.80
2023-04-12T06:57:10.284Z,43.73
2023-04-12T06:59:38.446Z,46.83
2023-04-12T07:02:07.873Z,45.70
2023-04-12T07:04:36.236Z,45.67
2023-04-12T07:07:05.738Z,45.10
2023-04-12T07:09:33.972Z,45.77
2023-04-12T07:12:02.412Z,44.77
2023-04-12T07:14:30.854Z,45.10
2023-04-12T07:16:58.953Z,41.77
2023-04-12T07:19:26.964Z,41.47
2023-04-12T07:21:54.928Z,41.73
2023-04-12T07:24:24.433Z,41.13
2023-04-12T07:26:54.341Z,38.87
2023-04-12T07:29:22.366Z,39.90
2023-04-12T07:31:50.423Z,37.13
2023-04-12T07:34:18.603Z,39.17
2023-04-12T07:36:46.801Z,38.83
2023-04-12T07:39:14.952Z,39.23
2023-04-12T07:41:46.563Z,37.67
2023-04-12T07:44:14.560Z,35.37
2023-04-12T07:46:43.065Z,35.53
2023-04-12T07:49:11.612Z,37.03
2023-04-12T07:51:39.659Z,36.03
2023-04-12T07:54:07.759Z,36.87
2023-04-12T07:56:36.641Z,36.17
2023-04-12T07:59:06.120Z,36.03
2023-04-12T08:01:34.225Z,34.47
2023-04-12T08:04:02.798Z,32.60
2023-04-12T08:06:33.705Z,32.03
2023-04-12T08:09:02.336Z,29.80
2023-04-12T08:11:30.412Z,31.03
2023-04-12T08:13:58.735Z,32.00
2023-04-12T08:16:28.463Z,31.00
2023-04-12T08:18:56.526Z,31.77
2023-04-12T08:21:25.013Z,31.10
2023-04-12T08:23:52.966Z,32.90
2023-04-12T08:26:21.314Z,34.20
2023-04-12T08:28:49.475Z,33.33
2023-04-12T08:31:17.934Z,32.10
2023-04-12T08:33:47.348Z,32.23
2023-04-12T08:36:15.767Z,33.10
2023-04-12T08:38:46.116Z,31.23
2023-04-12T08:41:15.416Z,28.73
2023-04-12T08:43:47.471Z,27.53
2023-04-12T08:46:16.973Z,27.13
2023-04-12T08:48:47.794Z,27.77
2023-04-12T08:51:17.403Z,27.27
2023-04-12T08:53:45.760Z,27.07
2023-04-12T08:56:15.389Z,27.40
2023-04-12T08:58:48.993Z,23.77
2023-04-12T09:01:18.098Z,21.87
2023-04-12T09:03:47.787Z,20.57
2023-04-12T09:06:16.216Z,21.70
2023-04-12T09:08:54.767Z,19.47
2023-04-12T09:11:24.573Z,22.53
2023-04-12T09:13:53.143Z,19.53
2023-04-12T09:16:36.279Z,18.13
2023-04-12T09:19:06.199Z,19.43
2023-04-12T09:21:35.242Z,18.60
2023-04-12T09:24:04.684Z,18.53
2023-04-12T09:26:32.709Z,18.03
2023-04-12T09:29:01.089Z,17.87
2023-04-12T09:31:29.202Z,16.53
2023-04-12T09:34:09.646Z,15.10
2023-04-12T09:36:41.144Z,14.00
2023-04-12T09:39:09.757Z,14.80
2023-04-12T09:41:37.747Z,16.30
2023-04-12T09:44:05.827Z,15.30
2023-04-12T09:46:34.887Z,15.30
2023-04-12T09:49:03.732Z,15.70
2023-04-12T09:51:36.605Z,15.03
2023-04-12T09:54:06.893Z,15.83
2023-04-12T09:56:36.753Z,16.13
2023-04-12T09:59:07.158Z,16.40
2023-04-12T10:01:36.932Z,15.57
2023-04-12T10:04:07.464Z,13.77
2023-04-12T10:06:37.507Z,13.70
2023-04-12T10:09:06.816Z,12.17
2023-04-12T10:11:35.385Z,13.33
2023-04-12T10:14:04.550Z,13.23
2023-04-12T10:16:35.317Z,13.43
2023-04-12T10:19:04.906Z,13.30
2023-04-12T10:21:33.129Z,11.93
2023-04-12T10:24:02.956Z,11.90
2023-04-12T10:26:31.644Z,13.03
2023-04-12T10:29:24.776Z,12.23
2023-04-12T10:31:53.055Z,11.53
2023-04-12T10:34:25.976Z,11.27
2023-04-12T10:36:56.180Z,10.90
2023-04-12T10:39:40.970Z,11.10
2023-04-12T10:42:21.577Z,11.00
2023-04-12T10:44:50.399Z,10.97
2023-04-12T10:47:18.585Z,13.97
2023-04-12T10:50:20.009Z,11.10
2023-04-12T10:53:25.893Z,10.80
2023-04-12T10:55:55.536Z,11.27
2023-04-12T10:59:01.785Z,10.67
2023-04-12T11:01:36.739Z,10.57
2023-04-12T11:04:15.258Z,9.53
2023-04-12T11:06:52.493Z,8.10
2023-04-12T11:09:42.029Z,8.57
2023-04-12T11:12:16.756Z,8.63
2023-04-12T11:14:46.861Z,9.10
2023-04-12T11:17:26.284Z,8.63
2023-04-12T11:19:57.574Z,9.27
2023-04-12T11:22:28.907Z,9.63
2023-04-12T11:24:58.820Z,8.90
2023-04-12T11:27:32.017Z,9.10
2023-04-12T11:30:02.007Z,9.33
2023-04-12T11:32:32.325Z,9.83
2023-04-12T11:35:00.497Z,8.20
2023-04-12T11:37:33.290Z,8.60
2023-04-12T11:40:01.509Z,8.97
2023-04-12T11:42:30.987Z,9.20
2023-04-12T11:45:04.037Z,9.37
2023-04-12T11:47:35.006Z,8.43
2023-04-12T11:50:03.139Z,8.13
2023-04-12T11:52:33.804Z,8.00
2023-04-12T11:55:05.216Z,9.20
2023-04-12T11:57:35.420Z,9.07
2023-04-12T12:00:06.752Z,8.13
2023-04-12T12:02:49.299Z,8.40
2023-04-12T12:05:37.179Z,8.40
2023-04-12T12:08:08.006Z,8.57
2023-04-12T12:10:49.162Z,9.60
2023-04-12T12:13:27.187Z,9.27
2023-04-12T12:15:55.420Z,9.00
2023-04-12T12:18:28.988Z,8.87
2023-04-12T12:20:57.128Z,8.20
2023-04-12T12:23:30.506Z,7.77
2023-04-12T12:26:14.297Z,9.30
2023-04-12T12:28:50.844Z,8.73
2023-04-12T12:31:21.204Z,8.20
2023-04-12T12:33:49.808Z,8.73
2023-04-12T12:36:20.968Z,8.07
2023-04-12T12:38:51.451Z,7.67
2023-04-12T12:41:21.625Z,8.23
2023-04-12T12:43:53.202Z,7.95
2023-04-12T12:46:21.877Z,8.48
2023-04-12T12:48:50.053Z,10.05
2023-04-12T12:51:19.938Z,8.20
2023-04-12T12:53:48.272Z,8.27
2023-04-12T12:56:17.230Z,8.35
2023-04-12T12:58:45.491Z,8.52
2023-04-12T13:01:14.937Z,7.28
2023-04-12T13:03:43.061Z,7.95
2023-04-12T13:06:11.505Z,8.20
2023-04-12T13:08:39.552Z,8.05
2023-04-12T13:11:08.451Z,8.10
2023-04-12T13:13:36.571Z,8.68
2023-04-12T13:16:05.022Z,7.80
2023-04-12T13:18:34.466Z,8.02
2023-04-12T13:21:02.650Z,8.38
2023-04-12T13:23:30.864Z,7.60
2023-04-12T13:25:59.074Z,8.23
2023-04-12T13:28:27.079Z,8.10
2023-04-12T13:30:55.106Z,8.15
2023-04-12T13:33:23.303Z,8.07
2023-04-12T13:35:52.768Z,8.38
2023-04-12T13:38:21.077Z,7.63
2023-04-12T13:40:49.161Z,10.65
2023-04-12T13:43:17.146Z,10.20
2023-04-12T13:45:45.185Z,7.75
2023-04-12T13:48:13.281Z,7.70
2023-04-12T13:50:41.397Z,8.45
2023-04-12T13:53:10.918Z,7.55
2023-04-12T13:55:38.921Z,7.50
2023-04-12T13:58:07.009Z,8.70
2023-04-12T14:00:35.370Z,7.75
2023-04-12T14:03:03.760Z,7.50
2023-04-12T14:05:32.022Z,7.63
2023-04-12T14:08:00.094Z,7.32
2023-04-12T14:10:29.489Z,7.20
2023-04-12T14:12:57.544Z,8.03
2023-04-12T14:15:25.936Z,7.53
2023-04-12T14:17:54.196Z,7.33
2023-04-12T14:20:23.885Z,7.80
2023-04-12T14:22:52.184Z,7.67
2023-04-12T14:25:21.487Z,8.27
2023-04-12T14:27:50.927Z,7.37
2023-04-12T14:30:19.251Z,23.37
2023-04-12T14:32:48.087Z,8.80
2023-04-12T14:35:16.851Z,8.90
2023-04-12T14:37:45.739Z,9.55
2023-04-12T14:40:14.905Z,9.20
2023-04-12T14:42:43.253Z,10.40
2023-04-12T14:45:13.208Z,10.37
2023-04-12T14:47:41.580Z,10.83
2023-04-12T14:50:10.198Z,11.10
2023-04-12T14:52:38.263Z,10.57
2023-04-12T14:55:07.445Z,11.27
2023-04-12T14:57:35.864Z,11.47
2023-04-12T15:00:04.612Z,11.53
2023-04-12T15:02:34.215Z,15.47
2023-04-12T15:05:07.426Z,11.27
2023-04-12T15:07:36.006Z,12.95
2023-04-12T15:10:04.951Z,10.38
2023-04-12T15:12:33.592Z,11.32
2023-04-12T15:15:05.368Z,12.77
2023-04-12T15:17:35.719Z,16.70
2023-04-12T15:20:09.349Z,10.13
2023-04-12T15:22:37.722Z,10.55
2023-04-12T15:25:06.806Z,10.52
2023-04-12T15:27:34.968Z,10.90
2023-04-12T15:30:04.017Z,11.30
2023-04-12T15:32:36.305Z,9.90
2023-04-12T15:35:22.756Z,10.05
2023-04-12T15:37:55.155Z,12.13
2023-04-12T15:40:24.516Z,8.65
2023-04-12T15:42:52.700Z,9.35
2023-04-12T15:45:20.773Z,9.15
2023-04-12T15:47:48.925Z,10.10
2023-04-12T15:50:19.135Z,8.32
2023-04-12T15:52:47.598Z,9.30
2023-04-12T15:55:17.058Z,8.90
2023-04-12T15:57:45.296Z,9.27
2023-04-12T16:00:21.070Z,8.90
2023-04-12T16:02:53.713Z,10.68
2023-04-12T16:05:24.621Z,9.40
2023-04-12T16:07:52.680Z,9.88
2023-04-12T16:10:22.505Z,9.77
2023-04-12T16:12:54.041Z,9.60
2023-04-12T16:15:22.489Z,9.30
2023-04-12T16:17:53.276Z,9.50
2023-04-12T16:20:23.476Z,9.57
2023-04-12T16:22:55.114Z,10.73
2023-04-12T16:25:24.235Z,12.50
2023-04-12T16:27:52.354Z,9.55
2023-04-12T16:30:20.790Z,11.02
2023-04-12T16:32:49.336Z,10.15
2023-04-12T16:35:18.109Z,10.85
2023-04-12T16:37:48.193Z,12.55
2023-04-12T16:40:17.316Z,9.73
2023-04-12T16:42:46.035Z,9.38
2023-04-12T16:45:15.319Z,10.30
2023-04-12T16:47:43.570Z,9.80
2023-04-12T16:50:13.566Z,9.82
2023-04-12T16:52:42.064Z,9.48
2023-04-12T16:55:12.442Z,10.77
2023-04-12T16:57:41.717Z,9.32
2023-04-12T17:00:19.580Z,9.40
2023-04-12T17:02:49.957Z,7.40
2023-04-12T17:05:19.948Z,9.18
2023-04-12T17:07:49.909Z,9.20
2023-04-12T17:10:21.107Z,8.52
2023-04-12T17:12:50.638Z,9.10
2023-04-12T17:15:21.003Z,8.07
2023-04-12T17:17:50.393Z,9.35
2023-04-12T17:20:19.971Z,10.30
2023-04-12T17:22:48.456Z,9.88
2023-04-12T17:25:18.726Z,9.13
2023-04-12T17:27:49.375Z,9.30
2023-04-12T17:30:17.879Z,8.88
2023-04-12T17:32:48.384Z,10.05
2023-04-12T17:35:17.905Z,9.88
2023-04-12T17:37:46.400Z,9.15
2023-04-12T17:40:15.439Z,9.23
2023-04-12T17:42:45.011Z,9.23
2023-04-12T17:45:14.822Z,9.00
2023-04-12T17:47:43.933Z,9.00
2023-04-12T17:50:13.340Z,10.27
2023-04-12T17:52:42.447Z,9.67
2023-04-12T17:55:12.510Z,12.40
2023-04-12T17:57:40.816Z,10.97
2023-04-12T18:00:11.940Z,10.87
2023-04-12T18:02:44.724Z,11.63
2023-04-12T18:05:13.414Z,10.73
2023-04-12T18:07:42.525Z,11.10
2023-04-12T18:10:12.625Z,12.10
2023-04-12T18:12:41.048Z,12.70
2023-04-12T18:15:10.367Z,11.87
2023-04-12T18:17:39.754Z,12.43
2023-04-12T18:20:11.539Z,11.23
2023-04-12T18:22:40.004Z,12.93
2023-04-12T18:25:09.030Z,12.13
2023-04-12T18:27:37.052Z,12.33
2023-04-12T18:30:05.806Z,13.03
2023-04-12T18:32:33.841Z,14.37
2023-04-12T18:35:02.099Z,13.37
2023-04-12T18:37:31.935Z,14.63
2023-04-12T18:40:00.512Z,16.73
2023-04-12T18:42:28.543Z,15.60
2023-04-12T18:44:58.281Z,15.87
2023-04-12T18:47:27.282Z,17.10
2023-04-12T18:49:56.518Z,17.27
2023-04-12T18:52:24.683Z,17.27
2023-04-12T18:54:54.023Z,21.40
2023-04-12T18:57:23.134Z,18.17
2023-04-12T18:59:51.502Z,17.40
2023-04-12T19:02:19.829Z,16.83
2023-04-12T19:04:48.358Z,19.07
2023-04-12T19:07:16.370Z,21.30
2023-04-12T19:09:44.379Z,20.33
2023-04-12T19:12:13.787Z,22.87
2023-04-12T19:14:41.841Z,23.07
2023-04-12T19:17:10.533Z,23.67
2023-04-12T19:19:38.648Z,25.37
2023-04-12T19:22:06.806Z,26.17
2023-04-12T19:24:35.059Z,25.70
2023-04-12T19:27:03.658Z,25.80
2023-04-12T19:29:33.084Z,26.67
2023-04-12T19:32:02.262Z,28.43
2023-04-12T19:34:30.487Z,29.97
2023-04-12T19:36:58.855Z,29.53
2023-04-12T19:39:27.005Z,30.77
2023-04-12T19:41:55.018Z,32.63
2023-04-12T19:44:23.326Z,35.03
2023-04-12T19:46:52.948Z,34.93
2023-04-12T19:49:22.178Z,37.23
2023-04-12T19:51:50.832Z,35.93
2023-04-12T19:54:23.402Z,40.07
2023-04-12T19:56:52.640Z,38.67
2023-04-12T19:59:21.053Z,38.33
2023-04-12T20:01:49.173Z,40.07
2023-04-12T20:04:20.263Z,40.37
2023-04-12T20:06:50.471Z,40.57
2023-04-12T20:09:18.722Z,39.00
2023-04-12T20:11:46.864Z,39.53
2023-04-12T20:14:15.018Z,39.87
2023-04-12T20:16:45.360Z,39.33
2023-04-12T20:19:13.537Z,40.10
2023-04-12T20:21:47.496Z,41.33
2023-04-12T20:24:15.833Z,42.07
2023-04-12T20:26:46.572Z,42.57
2023-04-12T20:29:15.097Z,42.53
2023-04-12T20:31:43.402Z,44.03
2023-04-12T20:34:11.451Z,45.17
2023-04-12T20:36:39.485Z,48.50
2023-04-12T20:39:08.854Z,48.53
2023-04-12T20:41:38.243Z,50.07
2023-04-12T20:44:06.572Z,49.87
2023-04-12T20:46:36.925Z,50.87
2023-04-12T20:49:06.779Z,52.13
2023-04-12T20:51:34.854Z,50.90
2023-04-12T20:54:03.306Z,54.80
2023-04-12T20:56:32.675Z,53.43
2023-04-12T20:59:02.457Z,53.47
2023-04-12T21:01:30.629Z,55.53
2023-04-12T21:03:59.814Z,54.57
2023-04-12T21:06:28.390Z,55.03
2023-04-12T21:08:56.764Z,56.47
2023-04-12T21:11:25.052Z,55.57
2023-04-12T21:13:54.398Z,56.20
2023-04-12T21:16:24.999Z,55.23
2023-04-12T21:18:53.433Z,53.33
2023-04-12T21:21:21.635Z,53.47
2023-04-12T21:23:51.463Z,54.53
2023-04-12T21:26:20.912Z,53.03
2023-04-12T21:28:48.908Z,55.77
2023-04-12T21:31:18.838Z,56.87
2023-04-12T21:33:46.873Z,55.83
2023-04-12T21:36:15.150Z,57.43
2023-04-12T21:38:43.337Z,55.63
2023-04-12T21:41:13.077Z,54.43
2023-04-12T21:43:41.630Z,55.23
2023-04-12T21:46:10.024Z,56.57
2023-04-12T21:48:39.430Z,55.47
2023-04-12T21:51:08.320Z,55.00
2023-04-12T21:53:36.362Z,55.47
2023-04-12T21:56:04.433Z,56.60
2023-04-12T21:58:34.189Z,56.47
2023-04-12T22:01:02.669Z,56.07
2023-04-12T22:03:30.988Z,56.93
2023-04-12T22:06:04.726Z,56.50
2023-04-12T22:08:34.252Z,58.83
2023-04-12T22:11:02.535Z,59.27
2023-04-12T22:13:30.895Z,57.53
2023-04-12T22:16:00.813Z,58.93
2023-04-12T22:18:29.690Z,57.73
2023-04-12T22:20:58.058Z,57.47
2023-04-12T22:23:27.501Z,57.13
2023-04-12T22:25:58.649Z,57.83
2023-04-12T22:28:26.761Z,60.60
2023-04-12T22:30:57.175Z,59.60
2023-04-12T22:33:25.356Z,60.67
2023-04-12T22:35:53.428Z,60.83
2023-04-12T22:38:21.492Z,61.00
2023-04-12T22:40:51.158Z,60.13
2023-04-12T22:43:21.096Z,60.10
2023-04-12T22:45:49.398Z,59.57
2023-04-12T22:48:17.468Z,60.07
2023-04-12T22:50:45.850Z,61.00
2023-04-12T22:53:14.110Z,60.80
2023-04-12T22:55:42.325Z,60.07
2023-04-12T22:58:11.803Z,60.80
2023-04-12T23:00:39.881Z,60.93
2023-04-12T23:03:10.902Z,61.13
2023-04-12T23:05:41.482Z,62.77
2023-04-12T23:08:10.441Z,63.20
2023-04-12T23:10:38.825Z,65.13
2023-04-12T23:13:07.749Z,63.97
2023-04-12T23:15:37.629Z,65.03
2023-04-12T23:18:05.874Z,66.03
2023-04-12T23:20:35.855Z,65.50
2023-04-12T23:23:04.033Z,65.67
2023-04-12T23:25:39.465Z,68.37
2023-04-12T23:28:12.978Z,68.97
2023-04-12T23:30:47.786Z,69.90
2023-04-12T23:33:18.257Z,68.90
2023-04-12T23:35:47.488Z,70.20
2023-04-12T23:38:23.227Z,70.07
2023-04-12T23:40:53.902Z,72.30
2023-04-12T23:43:22.604Z,70.47
2023-04-12T23:45:53.091Z,73.57
2023-04-12T23:48:21.769Z,73.57
2023-04-12T23:50:50.108Z,74.97
2023-04-12T23:53:19.735Z,72.63
2023-04-12T23:55:49.585Z,70.63
2023-04-12T23:58:18.253Z,71.00
